sensor_id;sensor_type;location;lat;lon;timestamp;temperature;humidity
33715;DHT22;20043;50.998;4.754;2023-04-03T00:01:35;4.50;99.90
33715;DHT22;20043;50.998;4.754;2023-04-03T00:04:04;4.50;99.90
33715;DHT22;20043;50.998;4.754;2023-04-03T00:06:30;4.40;99.90
33715;DHT22;20043;50.998;4.754;2023-04-03T00:08:56;4.40;99.90
33715;DHT22;20043;50.998;4.754;2023-04-03T00:11:21;4.40;99.90
33715;DHT22;20043;50.998;4.754;2023-04-03T00:13:47;4.40;99.90
33715;DHT22;20043;50.998;4.754;2023-04-03T00:16:12;4.40;99.90
33715;DHT22;20043;50.998;4.754;2023-04-03T00:18:39;4.30;99.90
33715;DHT22;20043;50.998;4.754;2023-04-03T00:21:06;4.20;99.90
33715;DHT22;20043;50.998;4.754;2023-04-03T00:23:32;4.30;99.90
33715;DHT22;20043;50.998;4.754;2023-04-03T00:25:57;4.40;99.90
33715;DHT22;20043;50.998;4.754;2023-04-03T00:28:23;4.50;99.90
33715;DHT22;20043;50.998;4.754;2023-04-03T00:30:49;4.30;99.90
33715;DHT22;20043;50.998;4.754;2023-04-03T00:33:16;4.30;99.90
33715;DHT22;20043;50.998;4.754;2023-04-03T00:35:42;4.30;99.90
33715;DHT22;20043;50.998;4.754;2023-04-03T00:38:08;4.30;99.90
33715;DHT22;20043;50.998;4.754;2023-04-03T00:40:39;4.30;99.90
33715;DHT22;20043;50.998;4.754;2023-04-03T00:43:19;4.20;99.90
33715;DHT22;20043;50.998;4.754;2023-04-03T00:45:48;4.20;99.90
33715;DHT22;20043;50.998;4.754;2023-04-03T00:48:18;4.30;99.90
33715;DHT22;20043;50.998;4.754;2023-04-03T00:50:45;4.20;99.90
33715;DHT22;20043;50.998;4.754;2023-04-03T00:53:16;4.10;99.90
33715;DHT22;20043;50.998;4.754;2023-04-03T00:55:43;4.10;99.90
33715;DHT22;20043;50.998;4.754;2023-04-03T00:58:09;4.10;99.90
33715;DHT22;20043;50.998;4.754;2023-04-03T01:00:38;4.00;99.90
33715;DHT22;20043;50.998;4.754;2023-04-03T01:03:05;3.90;99.90
33715;DHT22;20043;50.998;4.754;2023-04-03T01:05:31;4.00;99.90
33715;DHT22;20043;50.998;4.754;2023-04-03T01:07:58;4.00;99.90
33715;DHT22;20043;50.998;4.754;2023-04-03T01:10:24;4.00;99.90
33715;DHT22;20043;50.998;4.754;2023-04-03T01:12:50;3.90;99.90
33715;DHT22;20043;50.998;4.754;2023-04-03T01:15:26;4.00;99.90
33715;DHT22;20043;50.998;4.754;2023-04-03T01:17:54;3.90;99.90
33715;DHT22;20043;50.998;4.754;2023-04-03T01:28:04;3.70;99.90
33715;DHT22;20043;50.998;4.754;2023-04-03T01:30:34;3.90;99.90
33715;DHT22;20043;50.998;4.754;2023-04-03T01:33:01;3.70;99.90
33715;DHT22;20043;50.998;4.754;2023-04-03T01:35:27;3.80;99.90
33715;DHT22;20043;50.998;4.754;2023-04-03T01:37:52;3.70;99.90
33715;DHT22;20043;50.998;4.754;2023-04-03T01:40:19;3.60;99.90
33715;DHT22;20043;50.998;4.754;2023-04-03T01:42:45;3.50;99.90
33715;DHT22;20043;50.998;4.754;2023-04-03T01:45:10;3.50;99.90
33715;DHT22;20043;50.998;4.754;2023-04-03T01:47:36;3.60;99.90
33715;DHT22;20043;50.998;4.754;2023-04-03T01:50:02;3.60;99.90
33715;DHT22;20043;50.998;4.754;2023-04-03T01:52:28;3.70;99.90
33715;DHT22;20043;50.998;4.754;2023-04-03T01:54:53;3.60;99.90
33715;DHT22;20043;50.998;4.754;2023-04-03T01:57:19;3.60;99.90
33715;DHT22;20043;50.998;4.754;2023-04-03T01:59:44;3.70;99.90
33715;DHT22;20043;50.998;4.754;2023-04-03T02:02:10;3.90;99.90
33715;DHT22;20043;50.998;4.754;2023-04-03T02:04:37;4.00;99.90
33715;DHT22;20043;50.998;4.754;2023-04-03T02:07:03;4.00;99.90
33715;DHT22;20043;50.998;4.754;2023-04-03T02:09:29;4.00;99.90
33715;DHT22;20043;50.998;4.754;2023-04-03T02:11:54;4.00;99.90
33715;DHT22;20043;50.998;4.754;2023-04-03T02:14:20;4.10;99.90
33715;DHT22;20043;50.998;4.754;2023-04-03T02:16:47;4.00;99.90
33715;DHT22;20043;50.998;4.754;2023-04-03T02:19:12;3.90;99.90
33715;DHT22;20043;50.998;4.754;2023-04-03T02:21:38;3.90;99.90
33715;DHT22;20043;50.998;4.754;2023-04-03T02:24:04;3.90;99.90
33715;DHT22;20043;50.998;4.754;2023-04-03T02:26:30;3.90;99.90
33715;DHT22;20043;50.998;4.754;2023-04-03T02:28:56;3.90;99.90
33715;DHT22;20043;50.998;4.754;2023-04-03T02:31:22;3.90;99.90
33715;DHT22;20043;50.998;4.754;2023-04-03T02:33:47;3.90;99.90
33715;DHT22;20043;50.998;4.754;2023-04-03T02:36:13;3.70;99.90
33715;DHT22;20043;50.998;4.754;2023-04-03T02:38:39;3.80;99.90
33715;DHT22;20043;50.998;4.754;2023-04-03T02:41:06;3.90;99.90
33715;DHT22;20043;50.998;4.754;2023-04-03T02:43:33;4.10;99.90
33715;DHT22;20043;50.998;4.754;2023-04-03T02:45:59;4.00;99.90
33715;DHT22;20043;50.998;4.754;2023-04-03T02:48:25;3.80;99.90
33715;DHT22;20043;50.998;4.754;2023-04-03T02:50:51;3.70;99.90
33715;DHT22;20043;50.998;4.754;2023-04-03T02:53:17;3.80;99.90
33715;DHT22;20043;50.998;4.754;2023-04-03T02:55:43;3.70;99.90
33715;DHT22;20043;50.998;4.754;2023-04-03T02:58:09;3.70;99.90
33715;DHT22;20043;50.998;4.754;2023-04-03T03:00:34;3.70;99.90
33715;DHT22;20043;50.998;4.754;2023-04-03T03:03:00;3.70;99.90
33715;DHT22;20043;50.998;4.754;2023-04-03T03:05:26;3.70;99.90
33715;DHT22;20043;50.998;4.754;2023-04-03T03:07:52;3.70;99.90
33715;DHT22;20043;50.998;4.754;2023-04-03T03:10:18;3.60;99.90
33715;DHT22;20043;50.998;4.754;2023-04-03T03:12:44;3.40;99.90
33715;DHT22;20043;50.998;4.754;2023-04-03T03:15:10;3.30;99.90
33715;DHT22;20043;50.998;4.754;2023-04-03T03:17:35;3.40;99.90
33715;DHT22;20043;50.998;4.754;2023-04-03T03:20:02;3.40;99.90
33715;DHT22;20043;50.998;4.754;2023-04-03T03:22:28;3.30;99.90
33715;DHT22;20043;50.998;4.754;2023-04-03T03:24:54;3.20;99.90
33715;DHT22;20043;50.998;4.754;2023-04-03T03:27:20;3.10;99.90
33715;DHT22;20043;50.998;4.754;2023-04-03T03:29:46;3.10;99.90
33715;DHT22;20043;50.998;4.754;2023-04-03T03:32:11;3.10;99.90
33715;DHT22;20043;50.998;4.754;2023-04-03T03:34:37;3.10;99.90
33715;DHT22;20043;50.998;4.754;2023-04-03T03:37:02;3.20;99.90
33715;DHT22;20043;50.998;4.754;2023-04-03T03:39:28;3.10;99.90
33715;DHT22;20043;50.998;4.754;2023-04-03T03:41:54;3.10;99.90
33715;DHT22;20043;50.998;4.754;2023-04-03T03:44:20;3.20;99.90
33715;DHT22;20043;50.998;4.754;2023-04-03T03:46:46;3.20;99.90
33715;DHT22;20043;50.998;4.754;2023-04-03T03:49:11;3.20;99.90
33715;DHT22;20043;50.998;4.754;2023-04-03T03:51:38;3.00;99.90
33715;DHT22;20043;50.998;4.754;2023-04-03T03:54:04;3.00;99.90
33715;DHT22;20043;50.998;4.754;2023-04-03T03:56:30;3.00;99.90
33715;DHT22;20043;50.998;4.754;2023-04-03T03:58:55;3.00;99.90
33715;DHT22;20043;50.998;4.754;2023-04-03T04:01:22;3.00;99.90
33715;DHT22;20043;50.998;4.754;2023-04-03T04:03:48;2.80;99.90
33715;DHT22;20043;50.998;4.754;2023-04-03T04:06:14;2.90;99.90
33715;DHT22;20043;50.998;4.754;2023-04-03T04:08:39;2.60;99.90
33715;DHT22;20043;50.998;4.754;2023-04-03T04:11:05;2.60;99.90
33715;DHT22;20043;50.998;4.754;2023-04-03T04:13:30;2.80;99.90
33715;DHT22;20043;50.998;4.754;2023-04-03T04:15:56;2.90;99.90
33715;DHT22;20043;50.998;4.754;2023-04-03T04:18:22;3.00;99.90
33715;DHT22;20043;50.998;4.754;2023-04-03T04:20:48;2.90;99.90
33715;DHT22;20043;50.998;4.754;2023-04-03T04:23:14;2.80;99.90
33715;DHT22;20043;50.998;4.754;2023-04-03T04:25:40;2.70;99.90
33715;DHT22;20043;50.998;4.754;2023-04-03T04:28:05;2.90;99.90
33715;DHT22;20043;50.998;4.754;2023-04-03T04:30:31;3.10;99.90
33715;DHT22;20043;50.998;4.754;2023-04-03T04:32:57;3.20;99.90
33715;DHT22;20043;50.998;4.754;2023-04-03T04:35:23;3.20;99.90
33715;DHT22;20043;50.998;4.754;2023-04-03T04:37:48;2.80;99.90
33715;DHT22;20043;50.998;4.754;2023-04-03T04:40:14;2.80;99.90
33715;DHT22;20043;50.998;4.754;2023-04-03T04:42:39;3.00;99.90
33715;DHT22;20043;50.998;4.754;2023-04-03T04:45:05;3.10;99.90
33715;DHT22;20043;50.998;4.754;2023-04-03T04:47:31;3.10;99.90
33715;DHT22;20043;50.998;4.754;2023-04-03T04:49:57;3.20;99.90
33715;DHT22;20043;50.998;4.754;2023-04-03T04:52:22;3.20;99.90
33715;DHT22;20043;50.998;4.754;2023-04-03T04:54:48;3.20;99.90
33715;DHT22;20043;50.998;4.754;2023-04-03T04:57:13;3.10;99.90
33715;DHT22;20043;50.998;4.754;2023-04-03T04:59:39;3.00;99.90
33715;DHT22;20043;50.998;4.754;2023-04-03T05:02:05;3.00;99.90
33715;DHT22;20043;50.998;4.754;2023-04-03T05:04:30;2.90;99.90
33715;DHT22;20043;50.998;4.754;2023-04-03T05:06:56;3.00;99.90
33715;DHT22;20043;50.998;4.754;2023-04-03T05:09:22;3.00;99.90
33715;DHT22;20043;50.998;4.754;2023-04-03T05:11:47;2.90;99.90
33715;DHT22;20043;50.998;4.754;2023-04-03T05:14:13;2.90;99.90
33715;DHT22;20043;50.998;4.754;2023-04-03T05:16:38;2.80;99.90
33715;DHT22;20043;50.998;4.754;2023-04-03T05:19:04;2.90;99.90
33715;DHT22;20043;50.998;4.754;2023-04-03T05:21:30;2.90;99.90
33715;DHT22;20043;50.998;4.754;2023-04-03T05:23:58;2.90;99.90
33715;DHT22;20043;50.998;4.754;2023-04-03T05:26:25;2.90;99.90
33715;DHT22;20043;50.998;4.754;2023-04-03T05:28:51;2.80;99.90
33715;DHT22;20043;50.998;4.754;2023-04-03T05:31:17;2.80;99.90
33715;DHT22;20043;50.998;4.754;2023-04-03T05:33:42;2.70;99.90
33715;DHT22;20043;50.998;4.754;2023-04-03T05:36:08;2.80;99.90
33715;DHT22;20043;50.998;4.754;2023-04-03T05:38:34;2.80;99.90
33715;DHT22;20043;50.998;4.754;2023-04-03T05:41:00;2.90;99.90
33715;DHT22;20043;50.998;4.754;2023-04-03T05:43:26;2.90;99.90
33715;DHT22;20043;50.998;4.754;2023-04-03T05:45:51;2.90;99.90
33715;DHT22;20043;50.998;4.754;2023-04-03T05:48:17;3.00;99.90
33715;DHT22;20043;50.998;4.754;2023-04-03T05:50:43;3.30;99.90
33715;DHT22;20043;50.998;4.754;2023-04-03T05:53:22;3.70;99.90
33715;DHT22;20043;50.998;4.754;2023-04-03T05:55:48;4.10;99.90
33715;DHT22;20043;50.998;4.754;2023-04-03T05:58:14;4.50;99.90
33715;DHT22;20043;50.998;4.754;2023-04-03T06:00:39;4.90;99.90
33715;DHT22;20043;50.998;4.754;2023-04-03T06:03:05;4.90;99.90
33715;DHT22;20043;50.998;4.754;2023-04-03T06:05:31;4.80;99.90
33715;DHT22;20043;50.998;4.754;2023-04-03T06:07:57;4.90;99.90
33715;DHT22;20043;50.998;4.754;2023-04-03T06:10:23;5.20;99.90
33715;DHT22;20043;50.998;4.754;2023-04-03T06:12:49;4.90;99.90
33715;DHT22;20043;50.998;4.754;2023-04-03T06:15:15;5.10;99.90
33715;DHT22;20043;50.998;4.754;2023-04-03T06:17:42;5.20;99.90
33715;DHT22;20043;50.998;4.754;2023-04-03T06:20:08;4.80;99.90
33715;DHT22;20043;50.998;4.754;2023-04-03T06:22:35;4.40;99.90
33715;DHT22;20043;50.998;4.754;2023-04-03T06:25:00;4.20;99.90
33715;DHT22;20043;50.998;4.754;2023-04-03T06:27:26;4.20;99.90
33715;DHT22;20043;50.998;4.754;2023-04-03T06:29:52;4.30;99.90
33715;DHT22;20043;50.998;4.754;2023-04-03T06:32:17;4.00;99.90
33715;DHT22;20043;50.998;4.754;2023-04-03T06:34:43;3.90;99.90
33715;DHT22;20043;50.998;4.754;2023-04-03T06:37:18;4.00;99.90
33715;DHT22;20043;50.998;4.754;2023-04-03T06:39:44;4.00;99.90
33715;DHT22;20043;50.998;4.754;2023-04-03T06:42:10;3.80;99.90
33715;DHT22;20043;50.998;4.754;2023-04-03T06:44:36;3.90;99.90
33715;DHT22;20043;50.998;4.754;2023-04-03T06:47:02;4.00;99.90
33715;DHT22;20043;50.998;4.754;2023-04-03T06:49:28;4.00;99.90
33715;DHT22;20043;50.998;4.754;2023-04-03T06:51:54;4.20;99.90
33715;DHT22;20043;50.998;4.754;2023-04-03T06:54:20;4.30;99.90
33715;DHT22;20043;50.998;4.754;2023-04-03T06:56:46;4.40;99.90
33715;DHT22;20043;50.998;4.754;2023-04-03T06:59:12;4.70;99.90
33715;DHT22;20043;50.998;4.754;2023-04-03T07:01:39;4.50;99.90
33715;DHT22;20043;50.998;4.754;2023-04-03T07:04:06;4.70;99.90
33715;DHT22;20043;50.998;4.754;2023-04-03T07:06:31;4.90;99.90
33715;DHT22;20043;50.998;4.754;2023-04-03T07:08:59;5.00;99.90
33715;DHT22;20043;50.998;4.754;2023-04-03T07:11:25;5.10;99.90
33715;DHT22;20043;50.998;4.754;2023-04-03T07:13:51;5.00;99.90
33715;DHT22;20043;50.998;4.754;2023-04-03T07:16:18;5.10;99.90
33715;DHT22;20043;50.998;4.754;2023-04-03T07:18:44;5.20;99.90
33715;DHT22;20043;50.998;4.754;2023-04-03T07:21:10;5.10;99.90
33715;DHT22;20043;50.998;4.754;2023-04-03T07:23:36;5.20;99.90
33715;DHT22;20043;50.998;4.754;2023-04-03T07:26:02;5.30;99.90
33715;DHT22;20043;50.998;4.754;2023-04-03T07:28:28;5.40;99.90
33715;DHT22;20043;50.998;4.754;2023-04-03T07:31:02;5.60;99.90
33715;DHT22;20043;50.998;4.754;2023-04-03T07:33:34;5.70;99.90
33715;DHT22;20043;50.998;4.754;2023-04-03T07:36:01;5.30;99.90
33715;DHT22;20043;50.998;4.754;2023-04-03T07:38:27;5.40;99.90
33715;DHT22;20043;50.998;4.754;2023-04-03T07:40:53;5.50;99.90
33715;DHT22;20043;50.998;4.754;2023-04-03T07:43:19;5.60;99.90
33715;DHT22;20043;50.998;4.754;2023-04-03T07:45:47;5.70;99.90
33715;DHT22;20043;50.998;4.754;2023-04-03T07:48:15;5.80;99.90
33715;DHT22;20043;50.998;4.754;2023-04-03T07:50:41;5.80;99.90
33715;DHT22;20043;50.998;4.754;2023-04-03T07:53:07;5.80;99.90
33715;DHT22;20043;50.998;4.754;2023-04-03T07:55:33;5.70;99.90
33715;DHT22;20043;50.998;4.754;2023-04-03T07:57:59;5.60;99.90
33715;DHT22;20043;50.998;4.754;2023-04-03T08:00:24;5.80;99.90
33715;DHT22;20043;50.998;4.754;2023-04-03T08:02:50;6.00;99.90
33715;DHT22;20043;50.998;4.754;2023-04-03T08:05:18;6.10;99.90
33715;DHT22;20043;50.998;4.754;2023-04-03T08:07:45;6.30;99.90
33715;DHT22;20043;50.998;4.754;2023-04-03T08:10:11;6.30;99.90
33715;DHT22;20043;50.998;4.754;2023-04-03T08:12:37;6.40;99.90
33715;DHT22;20043;50.998;4.754;2023-04-03T08:15:03;6.70;99.90
33715;DHT22;20043;50.998;4.754;2023-04-03T08:17:29;6.80;99.90
33715;DHT22;20043;50.998;4.754;2023-04-03T08:19:54;7.00;99.90
33715;DHT22;20043;50.998;4.754;2023-04-03T08:22:20;6.90;99.90
33715;DHT22;20043;50.998;4.754;2023-04-03T08:24:46;7.10;99.90
33715;DHT22;20043;50.998;4.754;2023-04-03T08:27:12;7.20;99.90
33715;DHT22;20043;50.998;4.754;2023-04-03T08:29:37;7.00;99.90
33715;DHT22;20043;50.998;4.754;2023-04-03T08:32:04;7.10;99.90
33715;DHT22;20043;50.998;4.754;2023-04-03T08:34:30;7.30;99.90
33715;DHT22;20043;50.998;4.754;2023-04-03T08:36:56;7.30;99.90
33715;DHT22;20043;50.998;4.754;2023-04-03T08:39:21;7.50;99.90
33715;DHT22;20043;50.998;4.754;2023-04-03T08:41:47;7.60;99.90
33715;DHT22;20043;50.998;4.754;2023-04-03T08:47:18;7.80;99.90
33715;DHT22;20043;50.998;4.754;2023-04-03T08:49:49;7.80;99.90
33715;DHT22;20043;50.998;4.754;2023-04-03T08:52:52;7.90;99.90
33715;DHT22;20043;50.998;4.754;2023-04-03T08:55:45;8.10;99.90
33715;DHT22;20043;50.998;4.754;2023-04-03T08:58:30;8.30;99.90
33715;DHT22;20043;50.998;4.754;2023-04-03T09:01:03;8.40;99.90
33715;DHT22;20043;50.998;4.754;2023-04-03T09:03:34;8.10;99.90
33715;DHT22;20043;50.998;4.754;2023-04-03T09:06:23;8.10;99.90
33715;DHT22;20043;50.998;4.754;2023-04-03T09:12:04;8.20;99.90
33715;DHT22;20043;50.998;4.754;2023-04-03T09:15:02;8.30;99.90
33715;DHT22;20043;50.998;4.754;2023-04-03T09:20:38;8.20;99.90
33715;DHT22;20043;50.998;4.754;2023-04-03T09:23:42;8.30;99.90
33715;DHT22;20043;50.998;4.754;2023-04-03T09:26:14;8.30;99.90
33715;DHT22;20043;50.998;4.754;2023-04-03T09:28:42;8.30;99.90
33715;DHT22;20043;50.998;4.754;2023-04-03T09:31:43;8.30;99.90
33715;DHT22;20043;50.998;4.754;2023-04-03T09:34:37;8.30;99.90
33715;DHT22;20043;50.998;4.754;2023-04-03T09:37:04;8.30;99.90
33715;DHT22;20043;50.998;4.754;2023-04-03T09:39:33;8.50;99.90
33715;DHT22;20043;50.998;4.754;2023-04-03T09:42:34;8.40;99.90
33715;DHT22;20043;50.998;4.754;2023-04-03T09:45:42;8.40;99.90
33715;DHT22;20043;50.998;4.754;2023-04-03T09:50:34;8.70;99.90
33715;DHT22;20043;50.998;4.754;2023-04-03T09:53:05;8.70;99.90
33715;DHT22;20043;50.998;4.754;2023-04-03T09:55:32;8.50;99.90
33715;DHT22;20043;50.998;4.754;2023-04-03T09:58:04;8.50;99.90
33715;DHT22;20043;50.998;4.754;2023-04-03T10:00:38;8.80;99.90
33715;DHT22;20043;50.998;4.754;2023-04-03T10:03:09;8.80;99.90
33715;DHT22;20043;50.998;4.754;2023-04-03T10:05:47;8.80;99.90
33715;DHT22;20043;50.998;4.754;2023-04-03T10:10:48;9.20;99.90
33715;DHT22;20043;50.998;4.754;2023-04-03T10:13:29;9.30;99.90
33715;DHT22;20043;50.998;4.754;2023-04-03T10:15:56;9.30;99.90
33715;DHT22;20043;50.998;4.754;2023-04-03T10:18:41;9.40;99.90
33715;DHT22;20043;50.998;4.754;2023-04-03T10:21:35;9.60;99.90
33715;DHT22;20043;50.998;4.754;2023-04-03T10:41:16;10.10;99.90
33715;DHT22;20043;50.998;4.754;2023-04-03T10:52:17;10.20;99.90
33715;DHT22;20043;50.998;4.754;2023-04-03T10:57:18;9.80;99.90
33715;DHT22;20043;50.998;4.754;2023-04-03T11:00:03;9.90;99.90
33715;DHT22;20043;50.998;4.754;2023-04-03T11:02:33;9.40;99.90
33715;DHT22;20043;50.998;4.754;2023-04-03T11:05:21;9.40;99.90
33715;DHT22;20043;50.998;4.754;2023-04-03T11:07:53;9.60;99.90
33715;DHT22;20043;50.998;4.754;2023-04-03T11:13:22;9.80;99.90
33715;DHT22;20043;50.998;4.754;2023-04-03T11:15:53;10.00;99.90
33715;DHT22;20043;50.998;4.754;2023-04-03T11:18:27;10.10;99.90
33715;DHT22;20043;50.998;4.754;2023-04-03T11:21:06;10.10;99.90
33715;DHT22;20043;50.998;4.754;2023-04-03T11:23:35;10.20;99.90
33715;DHT22;20043;50.998;4.754;2023-04-03T11:26:20;10.30;99.90
33715;DHT22;20043;50.998;4.754;2023-04-03T11:28:46;10.30;99.90
33715;DHT22;20043;50.998;4.754;2023-04-03T11:31:42;10.40;99.90
33715;DHT22;20043;50.998;4.754;2023-04-03T11:36:58;10.30;99.90
33715;DHT22;20043;50.998;4.754;2023-04-03T11:39:33;10.30;99.90
33715;DHT22;20043;50.998;4.754;2023-04-03T11:42:32;10.30;99.90
33715;DHT22;20043;50.998;4.754;2023-04-03T11:51:37;10.60;99.90
33715;DHT22;20043;50.998;4.754;2023-04-03T11:53:48;10.60;99.90
33715;DHT22;20043;50.998;4.754;2023-04-03T12:01:54;10.40;99.40
33715;DHT22;20043;50.998;4.754;2023-04-03T12:04:22;10.40;97.00
33715;DHT22;20043;50.998;4.754;2023-04-03T12:06:50;10.20;97.60
33715;DHT22;20043;50.998;4.754;2023-04-03T12:09:54;10.40;97.40
33715;DHT22;20043;50.998;4.754;2023-04-03T12:12:39;10.70;95.20
33715;DHT22;20043;50.998;4.754;2023-04-03T12:17:47;10.50;95.20
33715;DHT22;20043;50.998;4.754;2023-04-03T12:23:33;10.20;95.50
33715;DHT22;20043;50.998;4.754;2023-04-03T12:26:20;10.30;96.90
33715;DHT22;20043;50.998;4.754;2023-04-03T12:28:51;10.30;94.90
33715;DHT22;20043;50.998;4.754;2023-04-03T12:31:18;10.60;97.80
33715;DHT22;20043;50.998;4.754;2023-04-03T12:36:32;11.00;95.40
33715;DHT22;20043;50.998;4.754;2023-04-03T12:45:22;11.10;95.90
33715;DHT22;20043;50.998;4.754;2023-04-03T12:47:50;11.40;95.90
33715;DHT22;20043;50.998;4.754;2023-04-03T12:50:34;11.30;95.00
33715;DHT22;20043;50.998;4.754;2023-04-03T12:53:06;11.00;96.30
33715;DHT22;20043;50.998;4.754;2023-04-03T12:55:32;11.00;96.60
33715;DHT22;20043;50.998;4.754;2023-04-03T12:58:31;11.10;96.40
33715;DHT22;20043;50.998;4.754;2023-04-03T13:01:09;11.40;96.00
33715;DHT22;20043;50.998;4.754;2023-04-03T13:03:39;11.50;94.70
33715;DHT22;20043;50.998;4.754;2023-04-03T13:06:05;11.20;92.80
33715;DHT22;20043;50.998;4.754;2023-04-03T13:08:31;11.30;92.80
33715;DHT22;20043;50.998;4.754;2023-04-03T13:11:04;11.40;93.90
33715;DHT22;20043;50.998;4.754;2023-04-03T13:13:31;11.20;93.20
33715;DHT22;20043;50.998;4.754;2023-04-03T13:15:57;11.00;93.30
33715;DHT22;20043;50.998;4.754;2023-04-03T13:18:30;11.20;95.10
33715;DHT22;20043;50.998;4.754;2023-04-03T13:21:01;11.20;93.30
33715;DHT22;20043;50.998;4.754;2023-04-03T13:23:27;11.10;90.90
33715;DHT22;20043;50.998;4.754;2023-04-03T13:25:54;11.00;91.30
33715;DHT22;20043;50.998;4.754;2023-04-03T13:28:23;10.90;91.20
33715;DHT22;20043;50.998;4.754;2023-04-03T13:33:26;11.20;93.30
33715;DHT22;20043;50.998;4.754;2023-04-03T13:36:17;11.50;93.00
33715;DHT22;20043;50.998;4.754;2023-04-03T13:38:44;11.20;92.10
33715;DHT22;20043;50.998;4.754;2023-04-03T13:41:43;11.40;93.50
33715;DHT22;20043;50.998;4.754;2023-04-03T13:49:38;11.20;92.00
33715;DHT22;20043;50.998;4.754;2023-04-03T13:52:24;11.30;94.10
33715;DHT22;20043;50.998;4.754;2023-04-03T13:54:57;11.40;95.00
33715;DHT22;20043;50.998;4.754;2023-04-03T13:57:23;11.50;93.60
33715;DHT22;20043;50.998;4.754;2023-04-03T13:59:49;11.40;94.60
33715;DHT22;20043;50.998;4.754;2023-04-03T14:02:31;11.50;92.80
33715;DHT22;20043;50.998;4.754;2023-04-03T14:04:59;11.40;89.30
33715;DHT22;20043;50.998;4.754;2023-04-03T14:07:28;11.00;89.30
33715;DHT22;20043;50.998;4.754;2023-04-03T14:09:54;11.00;92.10
33715;DHT22;20043;50.998;4.754;2023-04-03T14:12:31;11.30;91.70
33715;DHT22;20043;50.998;4.754;2023-04-03T14:14:58;11.50;93.20
33715;DHT22;20043;50.998;4.754;2023-04-03T14:17:26;11.70;93.40
33715;DHT22;20043;50.998;4.754;2023-04-03T14:19:53;11.80;92.70
33715;DHT22;20043;50.998;4.754;2023-04-03T14:22:25;12.10;93.20
33715;DHT22;20043;50.998;4.754;2023-04-03T14:24:51;12.30;93.60
33715;DHT22;20043;50.998;4.754;2023-04-03T14:27:26;12.40;93.30
33715;DHT22;20043;50.998;4.754;2023-04-03T14:29:55;12.50;91.10
33715;DHT22;20043;50.998;4.754;2023-04-03T14:32:22;11.80;89.70
33715;DHT22;20043;50.998;4.754;2023-04-03T14:34:49;11.70;92.60
33715;DHT22;20043;50.998;4.754;2023-04-03T14:37:18;11.30;90.00
33715;DHT22;20043;50.998;4.754;2023-04-03T14:39:45;11.40;90.70
33715;DHT22;20043;50.998;4.754;2023-04-03T14:42:19;11.40;90.00
33715;DHT22;20043;50.998;4.754;2023-04-03T14:44:45;11.40;90.40
33715;DHT22;20043;50.998;4.754;2023-04-03T14:47:12;11.50;90.60
33715;DHT22;20043;50.998;4.754;2023-04-03T14:49:39;11.60;91.30
33715;DHT22;20043;50.998;4.754;2023-04-03T14:52:05;11.70;92.90
33715;DHT22;20043;50.998;4.754;2023-04-03T14:54:31;11.70;91.60
33715;DHT22;20043;50.998;4.754;2023-04-03T14:56:58;11.90;88.60
33715;DHT22;20043;50.998;4.754;2023-04-03T14:59:25;11.60;91.10
33715;DHT22;20043;50.998;4.754;2023-04-03T15:01:51;12.00;91.90
33715;DHT22;20043;50.998;4.754;2023-04-03T15:04:19;11.70;89.90
33715;DHT22;20043;50.998;4.754;2023-04-03T15:06:46;11.30;88.00
33715;DHT22;20043;50.998;4.754;2023-04-03T15:09:23;11.30;91.70
33715;DHT22;20043;50.998;4.754;2023-04-03T15:11:50;11.40;87.90
33715;DHT22;20043;50.998;4.754;2023-04-03T15:14:16;11.50;90.40
33715;DHT22;20043;50.998;4.754;2023-04-03T15:16:42;11.70;90.20
33715;DHT22;20043;50.998;4.754;2023-04-03T15:19:07;11.50;90.80
33715;DHT22;20043;50.998;4.754;2023-04-03T15:21:33;11.30;88.00
33715;DHT22;20043;50.998;4.754;2023-04-03T15:23:58;11.10;87.80
33715;DHT22;20043;50.998;4.754;2023-04-03T15:26:24;11.00;89.60
33715;DHT22;20043;50.998;4.754;2023-04-03T15:28:50;10.80;90.50
33715;DHT22;20043;50.998;4.754;2023-04-03T15:31:16;11.00;90.90
33715;DHT22;20043;50.998;4.754;2023-04-03T15:33:42;11.00;90.40
33715;DHT22;20043;50.998;4.754;2023-04-03T15:36:07;11.00;91.30
33715;DHT22;20043;50.998;4.754;2023-04-03T15:38:34;11.00;90.20
33715;DHT22;20043;50.998;4.754;2023-04-03T15:40:59;11.10;90.70
33715;DHT22;20043;50.998;4.754;2023-04-03T15:43:25;11.10;90.90
33715;DHT22;20043;50.998;4.754;2023-04-03T15:45:51;11.10;92.00
33715;DHT22;20043;50.998;4.754;2023-04-03T15:48:17;11.00;92.40
33715;DHT22;20043;50.998;4.754;2023-04-03T15:50:43;11.10;91.90
33715;DHT22;20043;50.998;4.754;2023-04-03T15:53:09;11.00;91.10
33715;DHT22;20043;50.998;4.754;2023-04-03T15:55:37;11.10;92.20
33715;DHT22;20043;50.998;4.754;2023-04-03T15:58:03;10.80;91.30
33715;DHT22;20043;50.998;4.754;2023-04-03T16:00:30;10.70;92.10
33715;DHT22;20043;50.998;4.754;2023-04-03T16:03:00;11.00;92.80
33715;DHT22;20043;50.998;4.754;2023-04-03T16:05:29;11.00;92.20
33715;DHT22;20043;50.998;4.754;2023-04-03T16:08:01;10.90;92.40
33715;DHT22;20043;50.998;4.754;2023-04-03T16:10:28;10.90;91.40
33715;DHT22;20043;50.998;4.754;2023-04-03T16:12:53;10.80;91.60
33715;DHT22;20043;50.998;4.754;2023-04-03T16:15:19;10.90;92.50
33715;DHT22;20043;50.998;4.754;2023-04-03T16:17:45;11.00;92.20
33715;DHT22;20043;50.998;4.754;2023-04-03T16:20:11;11.10;93.00
33715;DHT22;20043;50.998;4.754;2023-04-03T16:22:38;11.00;92.20
33715;DHT22;20043;50.998;4.754;2023-04-03T16:25:06;11.00;93.40
33715;DHT22;20043;50.998;4.754;2023-04-03T16:27:32;11.10;92.10
33715;DHT22;20043;50.998;4.754;2023-04-03T16:29:58;10.60;91.20
33715;DHT22;20043;50.998;4.754;2023-04-03T16:32:29;10.60;93.40
33715;DHT22;20043;50.998;4.754;2023-04-03T16:34:56;10.80;93.00
33715;DHT22;20043;50.998;4.754;2023-04-03T16:37:21;10.80;94.80
33715;DHT22;20043;50.998;4.754;2023-04-03T16:39:47;10.80;92.80
33715;DHT22;20043;50.998;4.754;2023-04-03T16:42:12;10.70;92.60
33715;DHT22;20043;50.998;4.754;2023-04-03T16:44:38;10.50;92.40
33715;DHT22;20043;50.998;4.754;2023-04-03T16:47:06;10.40;93.60
33715;DHT22;20043;50.998;4.754;2023-04-03T16:49:32;10.60;94.10
33715;DHT22;20043;50.998;4.754;2023-04-03T16:52:03;10.50;94.20
33715;DHT22;20043;50.998;4.754;2023-04-03T16:54:29;10.60;94.10
33715;DHT22;20043;50.998;4.754;2023-04-03T16:56:55;10.60;94.80
33715;DHT22;20043;50.998;4.754;2023-04-03T16:59:21;10.50;95.10
33715;DHT22;20043;50.998;4.754;2023-04-03T17:01:47;10.50;95.30
33715;DHT22;20043;50.998;4.754;2023-04-03T17:04:12;10.30;94.60
33715;DHT22;20043;50.998;4.754;2023-04-03T17:06:38;10.30;95.40
33715;DHT22;20043;50.998;4.754;2023-04-03T17:09:04;10.30;96.30
33715;DHT22;20043;50.998;4.754;2023-04-03T17:11:31;10.10;95.50
33715;DHT22;20043;50.998;4.754;2023-04-03T17:13:57;10.10;95.80
33715;DHT22;20043;50.998;4.754;2023-04-03T17:16:24;10.00;96.20
33715;DHT22;20043;50.998;4.754;2023-04-03T17:18:50;10.20;95.90
33715;DHT22;20043;50.998;4.754;2023-04-03T17:21:17;10.00;96.10